sensor_id;sensor_type;location;lat;lon;timestamp;pressure;altitude;pressure_sealevel;temperature;humidity
6833;BME280;3454;42.654;23.378;2023-05-01T00:02:07;64313.25;;;12.98;84.52
6833;BME280;3454;42.654;23.378;2023-05-01T00:04:33;64311.97;;;12.95;84.08
6833;BME280;3454;42.654;23.378;2023-05-01T00:06:58;64308.66;;;12.92;84.92
6833;BME280;3454;42.654;23.378;2023-05-01T00:09:26;64315.03;;;12.95;85.39
6833;BME280;3454;42.654;23.378;2023-05-01T00:11:52;64318.75;;;13.03;84.99
6833;BME280;3454;42.654;23.378;2023-05-01T00:14:17;64316.53;;;13.01;84.84
6833;BME280;3454;42.654;23.378;2023-05-01T00:16:43;64327.69;;;13.07;83.89
6833;BME280;3454;42.654;23.378;2023-05-01T00:19:10;64313.03;;;12.96;84.81
6833;BME280;3454;42.654;23.378;2023-05-01T00:21:36;64307.34;;;12.88;85.52
6833;BME280;3454;42.654;23.378;2023-05-01T00:24:01;64324.94;;;13.04;84.32
6833;BME280;3454;42.654;23.378;2023-05-01T00:26:27;64307.91;;;12.89;85.32
6833;BME280;3454;42.654;23.378;2023-05-01T00:28:55;64297.47;;;12.79;86.02
6833;BME280;3454;42.654;23.378;2023-05-01T00:31:23;64291.31;;;12.78;85.69
6833;BME280;3454;42.654;23.378;2023-05-01T00:33:49;64292.53;;;12.75;84.25
6833;BME280;3454;42.654;23.378;2023-05-01T00:36:15;64282.34;;;12.68;85.67
6833;BME280;3454;42.654;23.378;2023-05-01T00:38:40;64285.06;;;12.70;86.43
6833;BME280;3454;42.654;23.378;2023-05-01T00:41:05;64290.34;;;12.73;86.84
6833;BME280;3454;42.654;23.378;2023-05-01T00:43:31;64288.34;;;12.73;86.75
6833;BME280;3454;42.654;23.378;2023-05-01T00:45:56;64289.25;;;12.72;87.31
6833;BME280;3454;42.654;23.378;2023-05-01T00:48:22;64287.81;;;12.73;87.32
6833;BME280;3454;42.654;23.378;2023-05-01T00:50:47;64282.88;;;12.68;87.01
6833;BME280;3454;42.654;23.378;2023-05-01T00:53:13;64284.31;;;12.67;86.40
6833;BME280;3454;42.654;23.378;2023-05-01T00:55:40;64271.16;;;12.55;86.54
6833;BME280;3454;42.654;23.378;2023-05-01T00:58:06;64263.47;;;12.48;87.29
6833;BME280;3454;42.654;23.378;2023-05-01T01:00:33;64251.63;;;12.39;88.47
6833;BME280;3454;42.654;23.378;2023-05-01T01:02:58;64241.22;;;12.30;89.33
6833;BME280;3454;42.654;23.378;2023-05-01T01:05:26;64245.25;;;12.36;88.84
6833;BME280;3454;42.654;23.378;2023-05-01T01:13:20;64249.09;;;12.39;88.33
6833;BME280;3454;42.654;23.378;2023-05-01T01:21:16;64267.72;;;12.56;88.44
6833;BME280;3454;42.654;23.378;2023-05-01T01:27:09;64246.13;;;12.34;89.88
6833;BME280;3454;42.654;23.378;2023-05-01T01:34:31;64247.25;;;12.35;92.98
6833;BME280;3454;42.654;23.378;2023-05-01T01:37:02;64219.81;;;12.10;94.78
6833;BME280;3454;42.654;23.378;2023-05-01T01:39:29;64193.84;;;11.84;96.36
6833;BME280;3454;42.654;23.378;2023-05-01T01:42:04;64173.25;;;11.67;97.51
6833;BME280;3454;42.654;23.378;2023-05-01T01:44:36;64154.38;;;11.48;99.43
6833;BME280;3454;42.654;23.378;2023-05-01T01:47:05;64146.16;;;11.40;100.00
6833;BME280;3454;42.654;23.378;2023-05-01T01:49:33;64147.25;;;11.41;100.00
6833;BME280;3454;42.654;23.378;2023-05-01T01:52:02;64167.53;;;11.60;98.48
6833;BME280;3454;42.654;23.378;2023-05-01T01:54:38;64180.91;;;11.74;97.80
6833;BME280;3454;42.654;23.378;2023-05-01T01:57:06;64178.16;;;11.72;97.38
6833;BME280;3454;42.654;23.378;2023-05-01T01:59:33;64138.50;;;11.33;98.59
6833;BME280;3454;42.654;23.378;2023-05-01T02:01:59;64121.50;;;11.18;98.64
6833;BME280;3454;42.654;23.378;2023-05-01T02:04:27;64112.75;;;11.10;98.71
6833;BME280;3454;42.654;23.378;2023-05-01T02:06:56;64116.81;;;11.16;97.42
6833;BME280;3454;42.654;23.378;2023-05-01T02:09:23;64131.91;;;11.27;97.61
6833;BME280;3454;42.654;23.378;2023-05-01T02:11:50;64140.16;;;11.35;96.22
6833;BME280;3454;42.654;23.378;2023-05-01T02:14:18;64129.19;;;11.25;97.00
6833;BME280;3454;42.654;23.378;2023-05-01T02:16:44;64135.44;;;11.33;97.21
6833;BME280;3454;42.654;23.378;2023-05-01T02:19:12;64156.78;;;11.52;96.09
6833;BME280;3454;42.654;23.378;2023-05-01T02:21:39;64154.03;;;11.50;95.75
6833;BME280;3454;42.654;23.378;2023-05-01T02:24:06;64125.34;;;11.21;97.03
6833;BME280;3454;42.654;23.378;2023-05-01T02:26:35;64135.22;;;11.30;96.77
6833;BME280;3454;42.654;23.378;2023-05-01T02:29:01;64113.53;;;11.13;97.67
6833;BME280;3454;42.654;23.378;2023-05-01T02:31:27;64107.50;;;11.07;97.94
6833;BME280;3454;42.654;23.378;2023-05-01T02:33:53;64107.50;;;11.07;98.74
6833;BME280;3454;42.654;23.378;2023-05-01T02:36:18;64123.94;;;11.22;97.49
6833;BME280;3454;42.654;23.378;2023-05-01T02:38:44;64110.78;;;11.10;97.00
6833;BME280;3454;42.654;23.378;2023-05-01T02:41:13;64116.25;;;11.15;96.03
6833;BME280;3454;42.654;23.378;2023-05-01T02:43:40;64108.59;;;11.08;97.25
6833;BME280;3454;42.654;23.378;2023-05-01T02:46:08;64102.78;;;11.05;97.21
6833;BME280;3454;42.654;23.378;2023-05-01T02:48:36;64105.63;;;11.03;97.51
6833;BME280;3454;42.654;23.378;2023-05-01T02:51:03;64091.63;;;10.92;98.83
6833;BME280;3454;42.654;23.378;2023-05-01T02:53:29;64094.56;;;10.97;99.26
6833;BME280;3454;42.654;23.378;2023-05-01T02:55:56;64105.53;;;11.08;98.90
6833;BME280;3454;42.654;23.378;2023-05-01T02:58:22;64102.91;;;11.01;100.00
6833;BME280;3454;42.654;23.378;2023-05-01T03:00:48;64091.63;;;10.92;100.00
6833;BME280;3454;42.654;23.378;2023-05-01T03:03:13;64085.91;;;10.85;100.00
6833;BME280;3454;42.654;23.378;2023-05-01T03:05:40;64095.13;;;10.98;100.00
6833;BME280;3454;42.654;23.378;2023-05-01T03:08:06;64106.19;;;11.04;100.00
6833;BME280;3454;42.654;23.378;2023-05-01T03:10:32;64095.13;;;10.98;100.00
6833;BME280;3454;42.654;23.378;2023-05-01T03:12:57;64089.78;;;10.88;100.00
6833;BME280;3454;42.654;23.378;2023-05-01T03:15:22;64107.81;;;11.05;99.69
6833;BME280;3454;42.654;23.378;2023-05-01T03:17:48;64120.97;;;11.17;98.16
6833;BME280;3454;42.654;23.378;2023-05-01T03:20:13;64105.84;;;11.06;98.03
6833;BME280;3454;42.654;23.378;2023-05-01T03:22:39;64074.97;;;10.75;98.37
6833;BME280;3454;42.654;23.378;2023-05-01T03:25:05;64057.69;;;10.61;98.17
6833;BME280;3454;42.654;23.378;2023-05-01T03:27:31;64032.84;;;10.36;98.65
6833;BME280;3454;42.654;23.378;2023-05-01T03:29:56;64013.34;;;10.21;99.19
6833;BME280;3454;42.654;23.378;2023-05-01T03:32:21;64018.06;;;10.23;100.00
6833;BME280;3454;42.654;23.378;2023-05-01T03:34:47;64024.84;;;10.31;100.00
6833;BME280;3454;42.654;23.378;2023-05-01T03:37:13;64016.09;;;10.23;100.00
6833;BME280;3454;42.654;23.378;2023-05-01T03:39:39;63995.28;;;10.04;100.00
6833;BME280;3454;42.654;23.378;2023-05-01T03:42:05;63984.88;;;9.94;100.00
6833;BME280;3454;42.654;23.378;2023-05-01T03:44:30;63990.91;;;10.00;100.00
6833;BME280;3454;42.654;23.378;2023-05-01T03:46:57;63978.66;;;9.86;100.00
6833;BME280;3454;42.654;23.378;2023-05-01T03:49:22;64013.91;;;10.21;99.49
6833;BME280;3454;42.654;23.378;2023-05-01T03:51:48;64003.81;;;10.09;99.37
6833;BME280;3454;42.654;23.378;2023-05-01T03:54:13;63984.47;;;9.89;99.09
6833;BME280;3454;42.654;23.378;2023-05-01T03:56:39;63967.38;;;9.78;99.55
6833;BME280;3454;42.654;23.378;2023-05-01T03:59:05;63969.25;;;9.82;100.00
6833;BME280;3454;42.654;23.378;2023-05-01T04:01:30;63968.69;;;9.82;99.92
6833;BME280;3454;42.654;23.378;2023-05-01T04:03:57;63966.31;;;9.77;100.00
6833;BME280;3454;42.654;23.378;2023-05-01T04:06:23;63963.91;;;9.73;100.00
6833;BME280;3454;42.654;23.378;2023-05-01T04:08:49;63951.31;;;9.61;100.00
6833;BME280;3454;42.654;23.378;2023-05-01T04:11:15;63972.88;;;9.83;100.00
6833;BME280;3454;42.654;23.378;2023-05-01T04:13:40;63977.25;;;9.87;100.00
6833;BME280;3454;42.654;23.378;2023-05-01T04:16:06;63980.28;;;9.88;99.01
6833;BME280;3454;42.654;23.378;2023-05-01T04:18:31;64004.06;;;10.12;98.43
6833;BME280;3454;42.654;23.378;2023-05-01T04:20:57;64002.16;;;10.08;97.25
6833;BME280;3454;42.654;23.378;2023-05-01T04:23:22;64012.94;;;10.16;97.33
6833;BME280;3454;42.654;23.378;2023-05-01T04:25:47;64010.41;;;10.16;97.46
6833;BME280;3454;42.654;23.378;2023-05-01T04:28:13;63989.59;;;9.96;99.49
6833;BME280;3454;42.654;23.378;2023-05-01T04:30:38;64023.22;;;10.30;98.17
6833;BME280;3454;42.654;23.378;2023-05-01T04:33:04;64037.09;;;10.45;97.49
6833;BME280;3454;42.654;23.378;2023-05-01T04:35:39;64047.06;;;10.49;97.54
6833;BME280;3454;42.654;23.378;2023-05-01T04:38:06;64044.88;;;10.47;98.15
6833;BME280;3454;42.654;23.378;2023-05-01T04:40:31;64061.50;;;10.65;96.53
6833;BME280;3454;42.654;23.378;2023-05-01T04:42:57;64066.22;;;10.67;96.64
6833;BME280;3454;42.654;23.378;2023-05-01T04:45:22;64087.25;;;10.88;94.93
6833;BME280;3454;42.654;23.378;2023-05-01T04:47:47;64115.28;;;11.10;93.60
6833;BME280;3454;42.654;23.378;2023-05-01T04:50:13;64130.84;;;11.26;92.88
6833;BME280;3454;42.654;23.378;2023-05-01T04:52:38;64112.19;;;11.09;94.47
6833;BME280;3454;42.654;23.378;2023-05-01T04:55:04;64103.88;;;11.06;94.93
6833;BME280;3454;42.654;23.378;2023-05-01T04:57:30;64101.25;;;10.99;96.58
6833;BME280;3454;42.654;23.378;2023-05-01T04:59:55;64111.88;;;11.11;95.35
6833;BME280;3454;42.654;23.378;2023-05-01T05:02:21;64134.09;;;11.29;94.56
6833;BME280;3454;42.654;23.378;2023-05-01T05:04:46;64139.81;;;11.37;94.93
6833;BME280;3454;42.654;23.378;2023-05-01T05:07:12;64154.03;;;11.50;93.58
6833;BME280;3454;42.654;23.378;2023-05-01T05:09:37;64149.44;;;11.43;94.61
6833;BME280;3454;42.654;23.378;2023-05-01T05:12:03;64154.59;;;11.50;94.81
6833;BME280;3454;42.654;23.378;2023-05-01T05:14:29;64184.75;;;11.78;93.18
6833;BME280;3454;42.654;23.378;2023-05-01T05:16:55;64188.03;;;11.81;92.31
6833;BME280;3454;42.654;23.378;2023-05-01T05:19:20;64176.53;;;11.70;93.77
6833;BME280;3454;42.654;23.378;2023-05-01T05:21:46;64170.28;;;11.62;94.71
6833;BME280;3454;42.654;23.378;2023-05-01T05:24:12;64175.97;;;11.70;94.38
6833;BME280;3454;42.654;23.378;2023-05-01T05:26:37;64175.44;;;11.69;94.37
6833;BME280;3454;42.654;23.378;2023-05-01T05:29:03;64188.03;;;11.81;94.17
6833;BME280;3454;42.654;23.378;2023-05-01T05:31:28;64183.44;;;11.74;95.07
6833;BME280;3454;42.654;23.378;2023-05-01T05:33:54;64186.94;;;11.80;95.45
6833;BME280;3454;42.654;23.378;2023-05-01T05:36:20;64200.09;;;11.92;94.98
6833;BME280;3454;42.654;23.378;2023-05-01T05:38:45;64183.31;;;11.79;96.14
6833;BME280;3454;42.654;23.378;2023-05-01T05:41:11;64177.41;;;11.69;97.39
6833;BME280;3454;42.654;23.378;2023-05-01T05:43:36;64164.66;;;11.62;98.34
6833;BME280;3454;42.654;23.378;2023-05-01T05:46:01;64172.47;;;11.64;98.86
6833;BME280;3454;42.654;23.378;2023-05-01T05:48:27;64182.34;;;11.73;98.70
6833;BME280;3454;42.654;23.378;2023-05-01T05:50:52;64186.94;;;11.80;98.38
6833;BME280;3454;42.654;23.378;2023-05-01T05:53:18;64199.56;;;11.92;97.32
6833;BME280;3454;42.654;23.378;2023-05-01T05:55:45;64212.72;;;12.04;96.49
6833;BME280;3454;42.654;23.378;2023-05-01T05:58:11;64234.75;;;12.19;96.41
6833;BME280;3454;42.654;23.378;2023-05-01T06:00:38;64226.94;;;12.17;96.71
6833;BME280;3454;42.654;23.378;2023-05-01T06:03:03;64274.13;;;12.60;93.72
6833;BME280;3454;42.654;23.378;2023-05-01T06:05:29;64276.31;;;12.62;94.48
6833;BME280;3454;42.654;23.378;2023-05-01T06:07:54;64279.59;;;12.65;94.52
6833;BME280;3454;42.654;23.378;2023-05-01T06:10:20;64293.09;;;12.75;93.61
6833;BME280;3454;42.654;23.378;2023-05-01T06:12:45;64291.44;;;12.74;93.79
6833;BME280;3454;42.654;23.378;2023-05-01T06:15:12;64295.50;;;12.80;92.74
6833;BME280;3454;42.654;23.378;2023-05-01T06:17:41;64324.94;;;13.04;91.92
6833;BME280;3454;42.654;23.378;2023-05-01T06:20:07;64315.56;;;12.96;92.91
6833;BME280;3454;42.654;23.378;2023-05-01T06:22:33;64335.00;;;13.16;91.86
6833;BME280;3454;42.654;23.378;2023-05-01T06:24:59;64335.22;;;13.18;91.27
6833;BME280;3454;42.654;23.378;2023-05-01T06:27:24;64367.94;;;13.46;90.20
6833;BME280;3454;42.654;23.378;2023-05-01T06:29:50;64378.38;;;13.56;89.06
6833;BME280;3454;42.654;23.378;2023-05-01T06:32:15;64397.59;;;13.73;87.35
6833;BME280;3454;42.654;23.378;2023-05-01T06:34:41;64386.59;;;13.63;89.15
6833;BME280;3454;42.654;23.378;2023-05-01T06:37:06;64381.66;;;13.59;87.73
6833;BME280;3454;42.654;23.378;2023-05-01T06:39:32;64395.41;;;13.71;88.79
6833;BME280;3454;42.654;23.378;2023-05-01T06:41:58;64430.19;;;14.05;87.06
6833;BME280;3454;42.654;23.378;2023-05-01T06:44:23;64444.81;;;14.16;86.45
6833;BME280;3454;42.654;23.378;2023-05-01T06:46:48;64458.78;;;14.32;86.79
6833;BME280;3454;42.654;23.378;2023-05-01T06:49:14;64458.88;;;14.27;86.14
6833;BME280;3454;42.654;23.378;2023-05-01T06:51:39;64436.00;;;14.08;85.07
6833;BME280;3454;42.654;23.378;2023-05-01T06:54:05;64446.47;;;14.18;84.54
6833;BME280;3454;42.654;23.378;2023-05-01T06:56:30;64464.81;;;14.37;82.54
6833;BME280;3454;42.654;23.378;2023-05-01T06:58:56;64477.25;;;14.46;82.31
6833;BME280;3454;42.654;23.378;2023-05-01T07:01:22;64464.06;;;14.34;85.20
6833;BME280;3454;42.654;23.378;2023-05-01T07:03:54;64462.97;;;14.33;85.31
6833;BME280;3454;42.654;23.378;2023-05-01T07:06:19;64474.50;;;14.44;83.96
6833;BME280;3454;42.654;23.378;2023-05-01T07:08:45;64476.34;;;14.48;83.60
6833;BME280;3454;42.654;23.378;2023-05-01T07:11:10;64490.44;;;14.58;83.18
6833;BME280;3454;42.654;23.378;2023-05-01T07:13:36;64519.00;;;14.84;82.35
6833;BME280;3454;42.654;23.378;2023-05-01T07:16:02;64552.31;;;15.12;81.94
6833;BME280;3454;42.654;23.378;2023-05-01T07:18:34;64581.34;;;15.44;80.59
6833;BME280;3454;42.654;23.378;2023-05-01T07:20:59;64569.59;;;15.31;79.94
6833;BME280;3454;42.654;23.378;2023-05-01T07:23:25;64556.91;;;15.19;80.54
6833;BME280;3454;42.654;23.378;2023-05-01T07:25:51;64587.94;;;15.50;78.70
6833;BME280;3454;42.654;23.378;2023-05-01T07:28:17;64574.50;;;15.35;78.35
6833;BME280;3454;42.654;23.378;2023-05-01T07:30:44;64604.03;;;15.60;77.34
6833;BME280;3454;42.654;23.378;2023-05-01T07:33:09;64630.09;;;15.86;77.11
6833;BME280;3454;42.654;23.378;2023-05-01T07:35:35;64668.28;;;16.23;75.76
6833;BME280;3454;42.654;23.378;2023-05-01T07:38:01;64703.53;;;16.55;74.73
6833;BME280;3454;42.654;23.378;2023-05-01T07:40:26;64678.16;;;16.32;73.90
6833;BME280;3454;42.654;23.378;2023-05-01T07:42:52;64694.38;;;16.49;73.43
6833;BME280;3454;42.654;23.378;2023-05-01T07:45:17;64718.38;;;16.69;71.27
6833;BME280;3454;42.654;23.378;2023-05-01T07:47:42;64769.38;;;17.13;72.05
6833;BME280;3454;42.654;23.378;2023-05-01T07:50:12;64723.34;;;16.73;70.29
6833;BME280;3454;42.654;23.378;2023-05-01T07:52:37;64729.41;;;16.79;71.26
6833;BME280;3454;42.654;23.378;2023-05-01T07:55:04;64732.16;;;16.82;70.49
6833;BME280;3454;42.654;23.378;2023-05-01T07:57:30;64773.25;;;17.17;70.11
6833;BME280;3454;42.654;23.378;2023-05-01T07:59:57;64781.72;;;17.27;69.23
6833;BME280;3454;42.654;23.378;2023-05-01T08:02:23;64780.06;;;17.25;67.57
6833;BME280;3454;42.654;23.378;2023-05-01T08:04:49;64826.91;;;17.68;67.07
6833;BME280;3454;42.654;23.378;2023-05-01T08:07:14;64869.16;;;18.04;66.70
6833;BME280;3454;42.654;23.378;2023-05-01T08:09:39;64879.84;;;18.16;67.71
6833;BME280;3454;42.654;23.378;2023-05-01T08:12:05;64864.00;;;17.97;63.28
6833;BME280;3454;42.654;23.378;2023-05-01T08:14:31;64857.78;;;17.96;62.46
6833;BME280;3454;42.654;23.378;2023-05-01T08:16:56;64845.44;;;17.83;64.18
6833;BME280;3454;42.654;23.378;2023-05-01T08:19:22;64880.19;;;18.14;66.02
6833;BME280;3454;42.654;23.378;2023-05-01T08:21:48;64898.25;;;18.35;59.25
6833;BME280;3454;42.654;23.378;2023-05-01T08:24:13;64905.56;;;18.37;58.79
6833;BME280;3454;42.654;23.378;2023-05-01T08:26:38;64915.69;;;18.49;60.69
6833;BME280;3454;42.654;23.378;2023-05-01T08:29:04;64951.00;;;18.81;60.75
6833;BME280;3454;42.654;23.378;2023-05-01T08:31:29;64966.25;;;18.93;58.74
6833;BME280;3454;42.654;23.378;2023-05-01T08:33:55;64971.97;;;19.00;60.64
6833;BME280;3454;42.654;23.378;2023-05-01T08:36:21;64951.00;;;18.81;57.49
6833;BME280;3454;42.654;23.378;2023-05-01T08:38:46;64939.41;;;18.71;58.04
6833;BME280;3454;42.654;23.378;2023-05-01T08:41:20;64960.59;;;18.92;58.05
6833;BME280;3454;42.654;23.378;2023-05-01T08:43:47;65009.53;;;19.35;60.80
6833;BME280;3454;42.654;23.378;2023-05-01T08:49:01;64985.41;;;19.15;58.78
6833;BME280;3454;42.654;23.378;2023-05-01T08:51:30;65007.63;;;19.31;59.61
6833;BME280;3454;42.654;23.378;2023-05-01T08:53:59;65038.22;;;19.61;59.87
6833;BME280;3454;42.654;23.378;2023-05-01T08:56:25;65049.28;;;19.71;53.91
6833;BME280;3454;42.654;23.378;2023-05-01T08:58:52;65074.66;;;19.94;53.20
6833;BME280;3454;42.654;23.378;2023-05-01T09:01:20;65086.81;;;20.05;52.38
6833;BME280;3454;42.654;23.378;2023-05-01T09:03:46;65107.28;;;20.24;52.15
6833;BME280;3454;42.654;23.378;2023-05-01T09:06:13;65104.72;;;20.24;50.69
6833;BME280;3454;42.654;23.378;2023-05-01T09:08:39;65115.00;;;20.31;49.51
6833;BME280;3454;42.654;23.378;2023-05-01T09:11:05;65116.66;;;20.32;49.65
6833;BME280;3454;42.654;23.378;2023-05-01T09:13:31;65148.72;;;20.61;52.21
6833;BME280;3454;42.654;23.378;2023-05-01T09:15:57;65174.69;;;20.85;49.65
6833;BME280;3454;42.654;23.378;2023-05-01T09:18:24;65201.78;;;21.10;49.76
6833;BME280;3454;42.654;23.378;2023-05-01T09:20:50;65204.56;;;21.12;48.81
6833;BME280;3454;42.654;23.378;2023-05-01T09:23:15;65217.63;;;21.22;49.36
6833;BME280;3454;42.654;23.378;2023-05-01T09:25:41;65220.59;;;21.27;48.61
6833;BME280;3454;42.654;23.378;2023-05-01T09:28:07;65216.19;;;21.23;48.72
6833;BME280;3454;42.654;23.378;2023-05-01T09:30:37;65233.53;;;21.41;47.04
6833;BME280;3454;42.654;23.378;2023-05-01T09:33:10;65261.31;;;21.61;47.28
6833;BME280;3454;42.654;23.378;2023-05-01T09:35:53;65298.78;;;22.00;47.48
6833;BME280;3454;42.654;23.378;2023-05-01T09:38:23;65298.25;;;22.00;46.36
6833;BME280;3454;42.654;23.378;2023-05-01T09:40:49;65310.78;;;22.09;50.42
6833;BME280;3454;42.654;23.378;2023-05-01T09:43:33;65303.03;;;22.02;46.50
6833;BME280;3454;42.654;23.378;2023-05-01T09:46:08;65335.47;;;22.29;45.71
6833;BME280;3454;42.654;23.378;2023-05-01T09:48:35;65408.78;;;22.98;46.35
6833;BME280;3454;42.654;23.378;2023-05-01T09:53:46;65445.53;;;23.33;44.95
6833;BME280;3454;42.654;23.378;2023-05-01T09:56:11;65443.66;;;23.29;45.34
6833;BME280;3454;42.654;23.378;2023-05-01T09:58:37;65482.47;;;23.65;45.11
6833;BME280;3454;42.654;23.378;2023-05-01T10:01:03;65494.31;;;23.78;41.40
6833;BME280;3454;42.654;23.378;2023-05-01T10:03:29;65481.91;;;23.64;43.99
6833;BME280;3454;42.654;23.378;2023-05-01T10:05:54;65514.59;;;23.94;43.57
6833;BME280;3454;42.654;23.378;2023-05-01T10:08:21;65413.78;;;23.02;45.07
6833;BME280;3454;42.654;23.378;2023-05-01T10:11:01;65381.84;;;22.76;44.27
6833;BME280;3454;42.654;23.378;2023-05-01T10:13:29;65410.22;;;22.97;42.31
6833;BME280;3454;42.654;23.378;2023-05-01T10:15:55;65425.94;;;23.13;41.26
6833;BME280;3454;42.654;23.378;2023-05-01T10:18:21;65449.25;;;23.34;40.77
6833;BME280;3454;42.654;23.378;2023-05-01T10:20:47;65444.44;;;23.32;40.50
6833;BME280;3454;42.654;23.378;2023-05-01T10:23:13;65363.91;;;22.57;42.36
6833;BME280;3454;42.654;23.378;2023-05-01T10:25:40;65367.25;;;22.60;44.17
6833;BME280;3454;42.654;23.378;2023-05-01T10:28:07;65388.69;;;22.84;42.40
6833;BME280;3454;42.654;23.378;2023-05-01T10:30:34;65471.59;;;23.57;39.52
6833;BME280;3454;42.654;23.378;2023-05-01T10:33:00;65520.91;;;24.02;39.17
6833;BME280;3454;42.654;23.378;2023-05-01T10:35:29;65537.91;;;24.15;38.50
6833;BME280;3454;42.654;23.378;2023-05-01T10:38:05;65639.63;;;25.10;38.12
6833;BME280;3454;42.654;23.378;2023-05-01T10:43:28;65586.34;;;24.61;38.97
6833;BME280;3454;42.654;23.378;2023-05-01T10:51:16;65464.75;;;23.49;39.63
6833;BME280;3454;42.654;23.378;2023-05-01T10:53:43;65423.72;;;23.11;40.86
6833;BME280;3454;42.654;23.378;2023-05-01T10:58:58;65472.69;;;23.58;41.70
6833;BME280;3454;42.654;23.378;2023-05-01T11:01:38;65554.53;;;24.30;39.88
6833;BME280;3454;42.654;23.378;2023-05-01T11:09:38;65716.03;;;25.76;36.15
6833;BME280;3454;42.654;23.378;2023-05-01T11:12:06;65551.44;;;24.30;38.33
6833;BME280;3454;42.654;23.378;2023-05-01T11:20:05;65434.81;;;23.21;40.43
6833;BME280;3454;42.654;23.378;2023-05-01T11:22:32;65458.31;;;23.45;40.51
6833;BME280;3454;42.654;23.378;2023-05-01T11:24:58;65457.53;;;23.42;40.50
6833;BME280;3454;42.654;23.378;2023-05-01T11:27:23;65452.00;;;23.37;40.53
6833;BME280;3454;42.654;23.378;2023-05-01T11:29:49;65396.59;;;22.87;39.54
6833;BME280;3454;42.654;23.378;2023-05-01T11:32:17;65414.50;;;23.05;40.73
6833;BME280;3454;42.654;23.378;2023-05-01T11:34:43;65451.09;;;23.39;41.91
6833;BME280;3454;42.654;23.378;2023-05-01T11:37:08;65396.41;;;22.84;40.21
6833;BME280;3454;42.654;23.378;2023-05-01T11:39:34;65429.81;;;23.17;41.08
6833;BME280;3454;42.654;23.378;2023-05-01T11:42:07;65413.22;;;23.02;39.16
6833;BME280;3454;42.654;23.378;2023-05-01T11:44:33;65427.06;;;23.14;40.28
6833;BME280;3454;42.654;23.378;2023-05-01T11:46:58;65441.81;;;23.25;39.29
6833;BME280;3454;42.654;23.378;2023-05-01T11:49:26;65502.44;;;23.83;38.75
6833;BME280;3454;42.654;23.378;2023-05-01T11:51:58;65559.19;;;24.37;38.04
6833;BME280;3454;42.654;23.378;2023-05-01T11:54:23;65609.28;;;24.77;37.50
6833;BME280;3454;42.654;23.378;2023-05-01T11:56:58;65461.41;;;23.46;37.02
6833;BME280;3454;42.654;23.378;2023-05-01T11:59:27;65397.91;;;22.90;38.34
6833;BME280;3454;42.654;23.378;2023-05-01T12:01:54;65350.97;;;22.43;38.98
6833;BME280;3454;42.654;23.378;2023-05-01T12:04:25;65312.63;;;22.13;40.02
6833;BME280;3454;42.654;23.378;2023-05-01T12:06:51;65347.31;;;22.42;38.85
6833;BME280;3454;42.654;23.378;2023-05-01T12:09:21;65296.03;;;21.98;39.03
6833;BME280;3454;42.654;23.378;2023-05-01T12:11:49;65318.53;;;22.16;39.70
6833;BME280;3454;42.654;23.378;2023-05-01T12:14:15;65299.72;;;21.99;39.68
6833;BME280;3454;42.654;23.378;2023-05-01T12:16:42;65260.41;;;21.63;38.74
6833;BME280;3454;42.654;23.378;2023-05-01T12:19:08;65261.88;;;21.62;39.63
6833;BME280;3454;42.654;23.378;2023-05-01T12:21:34;65270.72;;;21.70;41.01
6833;BME280;3454;42.654;23.378;2023-05-01T12:26:33;65241.03;;;21.45;39.74
6833;BME280;3454;42.654;23.378;2023-05-01T12:29:06;65251.00;;;21.54;39.91
6833;BME280;3454;42.654;23.378;2023-05-01T12:31:34;65256.34;;;21.57;39.03
6833;BME280;3454;42.654;23.378;2023-05-01T12:34:05;65349.53;;;22.44;37.33
6833;BME280;3454;42.654;23.378;2023-05-01T12:36:33;65436.47;;;23.23;39.02
6833;BME280;3454;42.654;23.378;2023-05-01T12:39:06;65491.34;;;23.73;34.78
6833;BME280;3454;42.654;23.378;2023-05-01T12:41:37;65441.66;;;23.30;35.13
6833;BME280;3454;42.654;23.378;2023-05-01T12:46:59;65431.50;;;23.18;34.69
6833;BME280;3454;42.654;23.378;2023-05-01T12:49:25;65404.00;;;22.96;35.34
6833;BME280;3454;42.654;23.378;2023-05-01T12:51:53;65509.81;;;23.92;35.75
6833;BME280;3454;42.654;23.378;2023-05-01T12:54:23;65524.03;;;24.02;35.43
6833;BME280;3454;42.654;23.378;2023-05-01T12:56:50;65556.75;;;24.32;37.51
6833;BME280;3454;42.654;23.378;2023-05-01T12:59:23;65561.19;;;24.36;35.92
6833;BME280;3454;42.654;23.378;2023-05-01T13:02:02;65565.84;;;24.43;36.54
6833;BME280;3454;42.654;23.378;2023-05-01T13:04:28;65584.50;;;24.57;36.47
6833;BME280;3454;42.654;23.378;2023-05-01T13:06:54;65555.31;;;24.33;36.58
6833;BME280;3454;42.654;23.378;2023-05-01T13:09:23;65555.31;;;24.33;36.65
6833;BME280;3454;42.654;23.378;2023-05-01T13:12:02;65477.69;;;23.63;36.51
6833;BME280;3454;42.654;23.378;2023-05-01T13:14:35;65503.72;;;23.86;38.16
6833;BME280;3454;42.654;23.378;2023-05-01T13:17:08;65508.16;;;23.90;38.18
6833;BME280;3454;42.654;23.378;2023-05-01T13:19:34;65520.16;;;23.99;38.50
6833;BME280;3454;42.654;23.378;2023-05-01T13:22:00;65424.50;;;23.14;39.52
6833;BME280;3454;42.654;23.378;2023-05-01T13:24:39;65333.47;;;22.29;41.54
6833;BME280;3454;42.654;23.378;2023-05-01T13:27:06;65296.59;;;21.98;42.43
6833;BME280;3454;42.654;23.378;2023-05-01T13:29:33;65304.13;;;22.03;43.59
6833;BME280;3454;42.654;23.378;2023-05-01T13:31:59;65260.41;;;21.63;42.85
6833;BME280;3454;42.654;23.378;2023-05-01T13:34:29;65202.34;;;21.10;44.24
6833;BME280;3454;42.654;23.378;2023-05-01T13:36:57;65155.00;;;20.69;44.92
6833;BME280;3454;42.654;23.378;2023-05-01T13:39:23;65130.13;;;20.47;46.27
6833;BME280;3454;42.654;23.378;2023-05-01T13:41:50;65196.28;;;21.05;45.33
6833;BME280;3454;42.654;23.378;2023-05-01T13:44:16;65263.94;;;21.68;43.38
6833;BME280;3454;42.654;23.378;2023-05-01T13:46:43;65309.69;;;22.08;42.49
6833;BME280;3454;42.654;23.378;2023-05-01T13:49:08;65349.53;;;22.44;43.18
6833;BME280;3454;42.654;23.378;2023-05-01T13:51:40;65405.44;;;22.95;40.96
6833;BME280;3454;42.654;23.378;2023-05-01T13:54:08;65413.78;;;23.02;40.19
6833;BME280;3454;42.654;23.378;2023-05-01T13:56:38;65419.28;;;23.07;40.35
6833;BME280;3454;42.654;23.378;2023-05-01T13:59:07;65418.19;;;23.06;39.57
6833;BME280;3454;42.654;23.378;2023-05-01T14:01:41;65440.34;;;23.26;39.26